createdAt,value
2023-03-06T00:04:08.535Z,3.38
2023-03-06T00:14:11.547Z,3.35
2023-03-06T00:24:15.959Z,3.34
2023-03-06T00:34:18.917Z,3.23
2023-03-06T00:44:23.984Z,3.02
2023-03-06T00:54:26.977Z,2.88
2023-03-06T01:04:31.471Z,2.59
2023-03-06T01:14:34.621Z,2.26
2023-03-06T01:24:39.593Z,2.05
2023-03-06T01:34:42.585Z,1.94
2023-03-06T01:45:01.297Z,1.79
2023-03-06T01:55:08.384Z,1.60
2023-03-06T02:05:12.902Z,1.41
2023-03-06T02:15:17.985Z,1.19
2023-03-06T02:25:34.666Z,1.00
2023-03-06T02:35:40.371Z,0.94
2023-03-06T02:45:50.071Z,0.89
2023-03-06T02:55:53.152Z,0.83
2023-03-06T03:05:58.468Z,0.79
2023-03-06T03:16:07.357Z,0.71
2023-03-06T03:26:14.103Z,0.63
2023-03-06T03:36:20.375Z,0.62
2023-03-06T03:46:26.601Z,0.60
2023-03-06T03:56:31.978Z,0.68
2023-03-06T04:06:41.576Z,0.72
2023-03-06T04:16:45.082Z,0.70
2023-03-06T04:26:50.213Z,0.76
2023-03-06T04:36:53.599Z,0.87
2023-03-06T04:46:58.166Z,1.02
2023-03-06T04:57:01.178Z,1.08
2023-03-06T05:07:05.538Z,1.27
2023-03-06T05:17:08.736Z,1.40
2023-03-06T05:27:15.203Z,1.45
2023-03-06T05:37:19.816Z,1.54
2023-03-06T05:47:24.285Z,1.62
2023-03-06T05:57:27.480Z,1.70
2023-03-06T06:07:32.456Z,1.77
2023-03-06T06:17:35.498Z,1.71
2023-03-06T06:27:41.212Z,1.89
2023-03-06T06:37:44.363Z,1.93
2023-03-06T06:47:51.300Z,2.07
2023-03-06T06:57:54.376Z,2.21
2023-03-06T07:07:58.772Z,2.37
2023-03-06T07:18:01.788Z,2.54
2023-03-06T07:28:06.429Z,2.57
2023-03-06T07:38:09.875Z,2.72
2023-03-06T07:48:14.822Z,3.00
2023-03-06T07:58:17.633Z,3.07
2023-03-06T08:08:21.946Z,3.30
2023-03-06T08:18:24.892Z,3.44
2023-03-06T08:28:29.664Z,3.47
2023-03-06T08:38:32.796Z,3.80
2023-03-06T08:48:37.124Z,4.25
2023-03-06T08:58:40.324Z,4.47
2023-03-06T09:08:44.814Z,4.87
2023-03-06T09:18:50.357Z,5.09
2023-03-06T09:28:54.790Z,5.41
2023-03-06T09:38:57.948Z,5.77
2023-03-06T09:49:31.354Z,6.04
2023-03-06T09:59:34.811Z,5.98
2023-03-06T10:09:45.673Z,6.03
2023-03-06T10:19:49.512Z,6.61
2023-03-06T10:30:03.980Z,6.56
2023-03-06T10:40:16.958Z,6.71
2023-03-06T10:50:26.003Z,6.82
2023-03-06T11:00:36.002Z,6.97
2023-03-06T11:10:40.412Z,7.04
2023-03-06T11:20:52.090Z,6.98
2023-03-06T11:31:03.185Z,7.15
2023-03-06T11:41:15.005Z,7.17
2023-03-06T11:51:23.596Z,7.28
2023-03-06T12:01:33.853Z,7.45
2023-03-06T12:11:47.151Z,7.70
2023-03-06T12:22:03.496Z,8.33
2023-03-06T12:32:30.453Z,8.15
2023-03-06T12:43:00.326Z,7.99
2023-03-06T12:53:07.603Z,7.70
2023-03-06T13:03:18.891Z,6.95
2023-03-06T13:13:35.370Z,7.34
2023-03-06T13:23:53.001Z,7.60
2023-03-06T13:34:03.054Z,7.89
2023-03-06T13:44:43.079Z,8.17
2023-03-06T13:54:59.078Z,7.96
2023-03-06T14:05:03.977Z,7.65
2023-03-06T14:15:18.846Z,7.61
2023-03-06T14:25:29.760Z,7.51
2023-03-06T14:35:34.486Z,7.63
2023-03-06T14:45:38.783Z,7.28
2023-03-06T14:55:51.256Z,6.68
2023-03-06T15:05:55.695Z,6.48
2023-03-06T15:16:04.478Z,6.63
2023-03-06T15:26:29.373Z,6.87
2023-03-06T15:36:35.440Z,7.21
2023-03-06T15:46:38.527Z,7.30
2023-03-06T15:56:45.556Z,7.26
2023-03-06T16:06:48.839Z,6.95
2023-03-06T16:16:55.139Z,6.88
2023-03-06T16:27:01.604Z,6.85
2023-03-06T16:37:07.624Z,6.77
2023-03-06T16:47:12.266Z,6.50
2023-03-06T16:57:16.736Z,6.51
2023-03-06T17:07:19.686Z,6.40
2023-03-06T17:17:24.185Z,6.24
2023-03-06T17:27:27.241Z,5.93
2023-03-06T17:37:33.006Z,5.87
2023-03-06T17:47:36.401Z,5.78
2023-03-06T17:57:40.729Z,5.77
2023-03-06T18:07:43.955Z,5.47
2023-03-06T18:17:48.420Z,5.29
2023-03-06T18:27:51.414Z,5.18
2023-03-06T18:37:55.834Z,5.26
2023-03-06T18:47:58.890Z,5.25
2023-03-06T18:58:03.360Z,5.34
2023-03-06T19:08:06.701Z,5.28
2023-03-06T19:18:12.153Z,4.96
2023-03-06T19:28:15.176Z,4.97
2023-03-06T19:38:19.563Z,4.86
2023-03-06T19:48:22.888Z,4.76
2023-03-06T19:58:27.727Z,4.51
2023-03-06T20:08:30.777Z,4.46
2023-03-06T20:18:35.220Z,4.38
2023-03-06T20:28:39.372Z,4.21
2023-03-06T20:38:44.468Z,4.12
2023-03-06T20:48:48.576Z,4.21
2023-03-06T20:58:53.343Z,4.28
2023-03-06T21:08:56.806Z,4.38
2023-03-06T21:19:01.737Z,4.48
2023-03-06T21:29:05.126Z,4.58
2023-03-06T21:39:09.476Z,4.63
2023-03-06T21:49:12.471Z,4.70
2023-03-06T21:59:16.831Z,4.86
2023-03-06T22:09:20.040Z,4.89
2023-03-06T22:19:24.455Z,5.10
2023-03-06T22:29:27.830Z,5.12
2023-03-06T22:39:32.173Z,5.08
2023-03-06T22:49:35.167Z,5.10
2023-03-06T22:59:39.524Z,5.09
2023-03-06T23:09:42.556Z,5.09
2023-03-06T23:20:09.994Z,5.09
2023-03-06T23:30:31.690Z,5.04
2023-03-06T23:40:36.045Z,4.92
2023-03-06T23:50:41.166Z,4.91
